Snoqualmie River: Snoqualmie Falls station

back to: Snoqualmie river
Snoqualmie Falls station Summary - (NOAA Hydrograph: SQUW1)
flood stage: 12.88 ft
Latest reading:
Tue02/19 05:25 am 3.98 ft 1066 cfs (-72/hr)
Past 24hr max:
Mon02/18 05:25 am 4.06 ft 1114 cfs
Forecasted crests: (published Mon 02/18/19 03:01 pm)

Snoqualmie Falls station Details

Latest Readings

Last 100 Readings:
Tue02/19 05:25 am 3.98 ft 1066 cfs
Tue02/19 05:20 am 3.99 ft 1072 cfs
Tue02/19 05:15 am 3.99 ft 1072 cfs
Tue02/19 05:10 am 3.98 ft 1066 cfs
Tue02/19 05:05 am 3.98 ft 1066 cfs
Tue02/19 05:00 am 3.99 ft 1072 cfs
Tue02/19 04:55 am 4.0 ft 1078 cfs
Tue02/19 04:50 am 3.99 ft 1072 cfs
Tue02/19 04:45 am 3.99 ft 1072 cfs
Tue02/19 04:40 am 4.0 ft 1078 cfs
Tue02/19 04:35 am 3.99 ft 1072 cfs
Tue02/19 04:30 am 3.98 ft 1066 cfs
Tue02/19 04:25 am 3.98 ft 1066 cfs
Tue02/19 04:20 am 3.99 ft 1072 cfs
Tue02/19 04:15 am 3.99 ft 1072 cfs
Tue02/19 04:10 am 3.99 ft 1072 cfs
Tue02/19 04:05 am 3.99 ft 1072 cfs
Tue02/19 04:00 am 3.99 ft 1072 cfs
Tue02/19 03:55 am 4.0 ft 1078 cfs
Tue02/19 03:50 am 4.0 ft 1078 cfs
Tue02/19 03:45 am 3.99 ft 1072 cfs
Tue02/19 03:40 am 3.99 ft 1072 cfs
Tue02/19 03:35 am 3.99 ft 1072 cfs
Tue02/19 03:30 am 3.98 ft 1066 cfs
Tue02/19 03:25 am 3.99 ft 1072 cfs
Tue02/19 03:20 am 4.0 ft 1078 cfs
Tue02/19 03:15 am 3.99 ft 1072 cfs
Tue02/19 03:10 am 4.0 ft 1078 cfs
Tue02/19 03:05 am 3.99 ft 1072 cfs
Tue02/19 03:00 am 4.0 ft 1078 cfs
Tue02/19 02:55 am 4.0 ft 1078 cfs
Tue02/19 02:50 am 3.99 ft 1072 cfs
Tue02/19 02:45 am 3.99 ft 1072 cfs
Tue02/19 02:40 am 3.99 ft 1072 cfs
Tue02/19 02:35 am 3.99 ft 1072 cfs
Tue02/19 02:30 am 3.99 ft 1072 cfs
Tue02/19 02:25 am 3.99 ft 1072 cfs
Tue02/19 02:20 am 3.99 ft 1072 cfs
Tue02/19 02:15 am 3.99 ft 1072 cfs
Tue02/19 02:10 am 3.99 ft 1072 cfs
Tue02/19 02:05 am 3.99 ft 1072 cfs
Tue02/19 02:00 am 4.0 ft 1078 cfs
Tue02/19 01:55 am 3.99 ft 1072 cfs
Tue02/19 01:50 am 3.99 ft 1072 cfs
Tue02/19 01:45 am 4.0 ft 1078 cfs
Tue02/19 01:40 am 4.0 ft 1078 cfs
Tue02/19 01:35 am 4.0 ft 1078 cfs
Tue02/19 01:30 am 4.0 ft 1078 cfs
Tue02/19 01:25 am 4.0 ft 1078 cfs
Tue02/19 01:20 am 3.99 ft 1072 cfs
Tue02/19 01:15 am 4.0 ft 1078 cfs
Tue02/19 01:10 am 4.0 ft 1078 cfs
Tue02/19 01:05 am 4.0 ft 1078 cfs
Tue02/19 01:00 am 4.0 ft 1078 cfs
Tue02/19 12:55 am 4.0 ft 1078 cfs
Tue02/19 12:50 am 4.0 ft 1078 cfs
Tue02/19 12:45 am 4.0 ft 1078 cfs
Tue02/19 12:40 am 4.0 ft 1078 cfs
Tue02/19 12:35 am 4.01 ft 1084 cfs
Tue02/19 12:30 am 4.0 ft 1078 cfs
Tue02/19 12:25 am 4.01 ft 1084 cfs
Tue02/19 12:20 am 4.01 ft 1084 cfs
Tue02/19 12:15 am 4.0 ft 1078 cfs
Tue02/19 12:10 am 4.0 ft 1078 cfs
Tue02/19 12:05 am 4.0 ft 1078 cfs
Tue02/19 12:00 am 4.0 ft 1078 cfs
Mon02/18 11:55 pm 4.0 ft 1078 cfs
Mon02/18 11:50 pm 4.0 ft 1078 cfs
Mon02/18 11:45 pm 4.0 ft 1078 cfs
Mon02/18 11:40 pm 3.99 ft 1072 cfs
Mon02/18 11:35 pm 3.99 ft 1072 cfs
Mon02/18 11:30 pm 4.01 ft 1084 cfs
Mon02/18 11:25 pm 4.0 ft 1078 cfs
Mon02/18 11:20 pm 4.0 ft 1078 cfs
Mon02/18 11:15 pm 4.0 ft 1078 cfs
Mon02/18 11:10 pm 4.0 ft 1078 cfs
Mon02/18 11:05 pm 4.01 ft 1084 cfs
Mon02/18 11:00 pm 3.99 ft 1072 cfs
Mon02/18 10:55 pm 3.99 ft 1072 cfs
Mon02/18 10:50 pm 4.0 ft 1078 cfs
Mon02/18 10:45 pm 3.99 ft 1072 cfs
Mon02/18 10:40 pm 3.99 ft 1072 cfs
Mon02/18 10:35 pm 4.0 ft 1078 cfs
Mon02/18 10:30 pm 4.0 ft 1078 cfs
Mon02/18 10:25 pm 3.99 ft 1072 cfs
Mon02/18 10:20 pm 4.0 ft 1078 cfs
Mon02/18 10:15 pm 4.0 ft 1078 cfs
Mon02/18 10:10 pm 4.0 ft 1078 cfs
Mon02/18 10:05 pm 4.0 ft 1078 cfs
Mon02/18 10:00 pm 4.0 ft 1078 cfs
Mon02/18 09:55 pm 4.01 ft 1084 cfs
Mon02/18 09:50 pm 4.01 ft 1084 cfs
Mon02/18 09:45 pm 4.0 ft 1078 cfs
Mon02/18 09:40 pm 3.99 ft 1072 cfs
Mon02/18 09:35 pm 4.0 ft 1078 cfs
Mon02/18 09:30 pm 4.01 ft 1084 cfs
Mon02/18 09:25 pm 4.0 ft 1078 cfs
Mon02/18 09:20 pm 4.01 ft 1084 cfs
Mon02/18 09:15 pm 4.0 ft 1078 cfs
Mon02/18 09:10 pm 4.01 ft 1084 cfs

Latest Forecasts

Currently Forecasted Readings:
Mon02/18 04:00 pm 4.01 ft 1086 cfs
Mon02/18 10:00 pm 3.99 ft 1071 cfs
Tue02/19 04:00 am 3.97 ft 1057 cfs
Tue02/19 10:00 am 3.94 ft 1043 cfs
Tue02/19 04:00 pm 3.92 ft 1029 cfs
Tue02/19 10:00 pm 3.9 ft 1016 cfs
Wed02/20 04:00 am 3.88 ft 1003 cfs
Wed02/20 10:00 am 3.86 ft 991 cfs
Wed02/20 04:00 pm 3.84 ft 980 cfs
Wed02/20 10:00 pm 3.82 ft 968 cfs
Thu02/21 04:00 am 3.8 ft 956 cfs
Thu02/21 10:00 am 3.78 ft 944 cfs
Thu02/21 04:00 pm 3.76 ft 932 cfs
Thu02/21 10:00 pm 3.74 ft 921 cfs
Fri02/22 04:00 am 3.72 ft 910 cfs
Fri02/22 10:00 am 3.71 ft 900 cfs
Fri02/22 04:00 pm 3.69 ft 889 cfs
Fri02/22 10:00 pm 3.67 ft 879 cfs
Sat02/23 04:00 am 3.65 ft 868 cfs
Sat02/23 10:00 am 3.63 ft 859 cfs
Sat02/23 04:00 pm 3.62 ft 849 cfs
Sat02/23 10:00 pm 3.6 ft 839 cfs
Sun02/24 04:00 am 3.59 ft 834 cfs
Sun02/24 10:00 am 3.58 ft 829 cfs
Sun02/24 04:00 pm 3.57 ft 824 cfs
Sun02/24 10:00 pm 3.56 ft 819 cfs
Mon02/25 04:00 am 3.55 ft 814 cfs
Mon02/25 10:00 am 3.54 ft 810 cfs
Mon02/25 04:00 pm 3.54 ft 805 cfs
Mon02/25 10:00 pm 3.53 ft 801 cfs
Tue02/26 04:00 am 3.52 ft 797 cfs
Tue02/26 10:00 am 3.51 ft 792 cfs
Tue02/26 04:00 pm 3.5 ft 788 cfs
Tue02/26 10:00 pm 3.5 ft 784 cfs
Wed02/27 04:00 am 3.49 ft 780 cfs
Wed02/27 10:00 am 3.48 ft 776 cfs
Wed02/27 04:00 pm 3.47 ft 772 cfs
Wed02/27 10:00 pm 3.47 ft 768 cfs
Thu02/28 04:00 am 3.46 ft 764 cfs

Snoqualmie River flood gauge data supplied by the
National Weather Service Northwest River Forecast Center.

Sign up for Floodzilla alerts.